Currently 55°F in Lake Elsinore, California, USA
55°F
55°F / 49°F
calm
0.00"
Monday, December 10, 2018 9:19 AM PST

Lake Elsinore, California Weather Summary
Last 36 Hours

Temperature Winds Hourly Humidity Dewpoint
Time Report Norm Report Norm Max Gusts Precip. Rpt. Norm Rpt. Norm Pressure
1,2Mon 09:19 AM  54.9°F  57°F  calm  1 mph  2 mph  0.00"  72%  68%  46°F  46°F  30.13"
Mon 09:00 AM  53.1°F  55°F  calm  1 mph  3 mph  0.00"  76%  72%  45°F  46°F  30.14"
Mon 08:00 AM  50.2°F  48°F  calm  calm  3 mph  0.00"  79%  83%  44°F  43°F  30.14"
Mon 07:00 AM  49.4°F  43°F  calm  calm  5 mph  0.00"  78%  85%  43°F  38°F  30.13"
Mon 06:00 AM  49.0°F  43°F  calm  calm  3 mph  0.00"  79%  84%  42°F  38°F  30.12"
3Mon 05:13 AM  48.6°F  43°F  3 mph NW  calm  3 mph  ----  79%  83%  42°F  39°F  30.13"
Mon 05:00 AM  48.7°F  43°F  calm  calm  none  0.00"  79%  83%  42°F  39°F  30.12"
Mon 04:00 AM  49.1°F  44°F  calm  1 mph  2 mph  0.00"  77%  82%  42°F  39°F  30.13"
Mon 03:00 AM  49.1°F  44°F  1 mph NW  calm  3 mph  0.00"  77%  81%  42°F  39°F  30.14"
Mon 02:00 AM  49.4°F  45°F  calm  calm  3 mph  0.00"  76%  80%  42°F  39°F  30.15"
Mon 01:00 AM  49.4°F  46°F  calm  calm  2 mph  0.00"  76%  79%  42°F  39°F  30.17"
Mon 12:00 AM  49.6°F  47°F  calm  1 mph  3 mph  0.00"  75%  77%  42°F  40°F  30.19"
Sun 11:00 PM  51.5°F  48°F  calm  1 mph  4 mph  0.00"  71%  76%  42°F  40°F  30.20"
Sun 10:00 PM  51.8°F  49°F  calm  1 mph  2 mph  0.00"  71%  73%  42°F  41°F  30.22"
Sun 09:00 PM  52.4°F  50°F  2 mph NW  1 mph  3 mph  0.00"  69%  71%  42°F  41°F  30.22"
Sun 08:00 PM  54.5°F  52°F  calm  1 mph  4 mph  0.00"  65%  68%  42°F  41°F  30.22"
Sun 07:00 PM  57.2°F  54°F  calm  1 mph  1 mph  0.00"  59%  64%  43°F  42°F  30.21"
Sun 06:00 PM  60.6°F  56°F  1 mph W  1 mph  4 mph  0.00"  51%  60%  42°F  42°F  30.21"
Sun 05:00 PM  63.8°F  60°F  calm  2 mph  3 mph  0.00"  43%  54%  40°F  42°F  30.21"
Sun 04:00 PM  68.0°F  65°F  calm  2 mph  5 mph  0.00"  37%  46%  40°F  43°F  30.20"
Sun 03:00 PM  70.4°F  68°F  3 mph NW  3 mph  5 mph  0.00"  33%  42%  39°F  43°F  30.20"
Sun 02:00 PM  71.2°F  68°F  calm  3 mph  4 mph  0.00"  33%  41%  39°F  43°F  30.19"
Sun 01:00 PM  72.7°F  68°F  calm  2 mph  5 mph  0.00"  30%  42%  39°F  43°F  30.22"
Sun 12:00 PM  73.2°F  66°F  calm  2 mph  6 mph  0.00"  29%  45%  38°F  44°F  30.26"
Sun 11:00 AM  68.7°F  64°F  1 mph E  2 mph  4 mph  0.00"  40%  50%  42°F  44°F  30.30"
Sun 10:00 AM  68.8°F  60°F  1 mph SE  1 mph  2 mph  0.00"  40%  59%  43°F  45°F  30.32"
Sun 09:00 AM  63.7°F  56°F  calm  1 mph  none  0.00"  51%  70%  44°F  46°F  30.32"
Sun 08:00 AM  51.4°F  48°F  calm  calm  none  0.00"  81%  81%  46°F  43°F  30.32"
Sun 07:00 AM  43.9°F  43°F  calm  calm  3 mph  0.00"  85%  84%  39°F  38°F  30.30"
Sun 06:00 AM  44.1°F  43°F  calm  1 mph  none  0.00"  85%  83%  40°F  38°F  30.29"
Sun 05:00 AM  44.7°F  44°F  calm  calm  none  0.00"  84%  82%  40°F  39°F  30.28"
Sun 04:00 AM  45.3°F  44°F  calm  1 mph  3 mph  0.00"  84%  81%  40°F  39°F  30.28"
Sun 03:00 AM  46.0°F  45°F  calm  calm  3 mph  0.00"  83%  80%  41°F  39°F  30.29"
Sun 02:00 AM  46.3°F  46°F  calm  calm  none  0.00"  82%  79%  41°F  39°F  30.29"
Sun 01:00 AM  47.1°F  46°F  calm  1 mph  none  0.00"  81%  77%  41°F  39°F  30.30"
Sun 12:00 AM  48.2°F  47°F  calm  1 mph  none  0.00"  80%  76%  42°F  40°F  30.30"
Sat 11:00 PM  49.3°F  48°F  calm  1 mph  3 mph  0.00"  77%  75%  42°F  40°F  30.32"
Sat 10:00 PM  50.5°F  49°F  calm  1 mph  2 mph  0.00"  75%  73%  43°F  41°F  30.32"

  1. Current weather data. No green row appears if the current weather data is also the high or low for the current day.
  2. High temperature for the current day.
  3. Low temperature for the current day.

The Lake Elsinore, California weather pages are a service of WeatherCurrents. Lake Elsinore is located south of Corona and north of the Temecula Valley, in southwestern Riverside County, California.
Copyright ©Mon Dec 10 09:19:32 PST 2018  WeatherCurrents. All rights reserved. - Submit questions and comments - Privacy Policy

This page automatically refreshes every 10 minutes.